Terminal Aerodrome Forecast
Issued by NWS

Home | Current Version | Previous Version | Text Only | Print | Product List | Glossary On
Versions: 1 2 3 4 5 6 7 8 9 10 11 12 13 14
000
FTUS44 KBMX 020200 AAA
TAFTCL
TAF AMD
KTCL 020220Z 0202/0224 21010KT 6SM -RA SCT007 BKN035
     FM020400 24011G18KT 6SM -DZ OVC007
     FM020900 32011G17KT P6SM OVC015
     FM021800 32012G18KT P6SM OVC050=

USA.gov is the U.S. government's official web portal to all federal, state and local government web resources and services.